sensor_id;sensor_type;location;lat;lon;timestamp;pressure;altitude;pressure_sealevel;temperature;humidity
6216;BME280;3141;49.234;9.326;2024-02-23T00:00:06;97572.09;;;11.33;63.43
6216;BME280;3141;49.234;9.326;2024-02-23T00:00:48;97574.53;;;11.35;64.40
6216;BME280;3141;49.234;9.326;2024-02-23T00:01:31;97577.63;;;11.25;64.04
6216;BME280;3141;49.234;9.326;2024-02-23T00:02:13;97581.91;;;11.26;64.05
6216;BME280;3141;49.234;9.326;2024-02-23T00:02:55;97576.63;;;11.26;63.92
6216;BME280;3141;49.234;9.326;2024-02-23T00:03:39;97583.22;;;11.04;64.18
6216;BME280;3141;49.234;9.326;2024-02-23T00:04:22;97594.16;;;11.14;64.95
6216;BME280;3141;49.234;9.326;2024-02-23T00:05:04;97600.81;;;11.30;64.77
6216;BME280;3141;49.234;9.326;2024-02-23T00:05:47;97600.75;;;10.86;65.55
6216;BME280;3141;49.234;9.326;2024-02-23T00:06:29;97611.91;;;11.01;65.61
6216;BME280;3141;49.234;9.326;2024-02-23T00:07:11;97603.94;;;11.07;65.81
6216;BME280;3141;49.234;9.326;2024-02-23T00:07:54;97603.75;;;11.09;65.46
6216;BME280;3141;49.234;9.326;2024-02-23T00:08:36;97615.69;;;11.24;65.37
6216;BME280;3141;49.234;9.326;2024-02-23T00:09:19;97609.13;;;11.33;65.28
6216;BME280;3141;49.234;9.326;2024-02-23T00:10:02;97604.72;;;11.21;64.98
6216;BME280;3141;49.234;9.326;2024-02-23T00:10:44;97601.53;;;11.06;65.65
6216;BME280;3141;49.234;9.326;2024-02-23T00:11:27;97598.41;;;11.15;66.08
6216;BME280;3141;49.234;9.326;2024-02-23T00:12:10;97599.44;;;11.14;66.03
6216;BME280;3141;49.234;9.326;2024-02-23T00:12:52;97600.03;;;11.23;66.22
6216;BME280;3141;49.234;9.326;2024-02-23T00:13:35;97605.28;;;11.29;66.14
6216;BME280;3141;49.234;9.326;2024-02-23T00:14:17;97608.13;;;11.28;66.13
6216;BME280;3141;49.234;9.326;2024-02-23T00:15:03;97608.72;;;11.36;65.77
6216;BME280;3141;49.234;9.326;2024-02-23T00:15:45;97611.59;;;11.28;66.45
6216;BME280;3141;49.234;9.326;2024-02-23T00:16:27;97618.75;;;11.21;66.40
6216;BME280;3141;49.234;9.326;2024-02-23T00:17:10;97608.88;;;10.97;66.70
6216;BME280;3141;49.234;9.326;2024-02-23T00:17:53;97609.09;;;10.83;66.97
6216;BME280;3141;49.234;9.326;2024-02-23T00:18:36;97611.75;;;10.83;67.10
6216;BME280;3141;49.234;9.326;2024-02-23T00:19:18;97620.25;;;10.91;67.13
6216;BME280;3141;49.234;9.326;2024-02-23T00:20:01;97618.59;;;11.03;66.70
6216;BME280;3141;49.234;9.326;2024-02-23T00:20:44;97621.22;;;11.16;67.19
6216;BME280;3141;49.234;9.326;2024-02-23T00:21:26;97621.78;;;11.18;66.97
6216;BME280;3141;49.234;9.326;2024-02-23T00:22:09;97623.47;;;11.06;66.95
6216;BME280;3141;49.234;9.326;2024-02-23T00:22:52;97626.78;;;10.95;67.00
6216;BME280;3141;49.234;9.326;2024-02-23T00:23:34;97631.84;;;10.97;66.59
6216;BME280;3141;49.234;9.326;2024-02-23T00:24:17;97627.19;;;10.92;67.32
6216;BME280;3141;49.234;9.326;2024-02-23T00:24:59;97638.94;;;11.09;66.44
6216;BME280;3141;49.234;9.326;2024-02-23T00:25:41;97628.81;;;10.93;67.11
6216;BME280;3141;49.234;9.326;2024-02-23T00:26:24;97635.53;;;10.96;67.08
6216;BME280;3141;49.234;9.326;2024-02-23T00:27:06;97633.72;;;10.83;67.42
6216;BME280;3141;49.234;9.326;2024-02-23T00:27:48;97634.69;;;11.02;67.22
6216;BME280;3141;49.234;9.326;2024-02-23T00:28:31;97633.22;;;11.12;67.14
6216;BME280;3141;49.234;9.326;2024-02-23T00:29:13;97612.56;;;10.83;66.95
6216;BME280;3141;49.234;9.326;2024-02-23T00:29:55;97626.97;;;10.94;67.07
6216;BME280;3141;49.234;9.326;2024-02-23T00:30:38;97624.75;;;10.97;66.79
6216;BME280;3141;49.234;9.326;2024-02-23T00:31:20;97627.84;;;10.75;66.79
6216;BME280;3141;49.234;9.326;2024-02-23T00:32:03;97628.44;;;10.83;66.80
6216;BME280;3141;49.234;9.326;2024-02-23T00:32:45;97629.84;;;10.92;67.46
6216;BME280;3141;49.234;9.326;2024-02-23T00:33:28;97630.63;;;10.93;67.06
6216;BME280;3141;49.234;9.326;2024-02-23T00:34:10;97624.31;;;10.87;67.48
6216;BME280;3141;49.234;9.326;2024-02-23T00:34:57;97625.56;;;10.85;66.75
6216;BME280;3141;49.234;9.326;2024-02-23T00:35:39;97632.47;;;10.86;66.20
6216;BME280;3141;49.234;9.326;2024-02-23T00:36:21;97620.31;;;10.78;66.55
6216;BME280;3141;49.234;9.326;2024-02-23T00:37:04;97623.56;;;10.74;66.67
6216;BME280;3141;49.234;9.326;2024-02-23T00:37:47;97628.44;;;10.77;66.52
6216;BME280;3141;49.234;9.326;2024-02-23T00:38:29;97621.53;;;10.76;66.60
6216;BME280;3141;49.234;9.326;2024-02-23T00:39:12;97633.72;;;10.83;66.49
6216;BME280;3141;49.234;9.326;2024-02-23T00:39:54;97618.28;;;10.74;66.99
6216;BME280;3141;49.234;9.326;2024-02-23T00:40:37;97633.34;;;10.73;67.16
6216;BME280;3141;49.234;9.326;2024-02-23T00:41:20;97634.50;;;10.90;66.65
6216;BME280;3141;49.234;9.326;2024-02-23T00:42:02;97636.13;;;10.91;66.74
6216;BME280;3141;49.234;9.326;2024-02-23T00:42:45;97630.06;;;10.71;67.06
6216;BME280;3141;49.234;9.326;2024-02-23T00:43:27;97640.41;;;10.92;67.29
6216;BME280;3141;49.234;9.326;2024-02-23T00:44:11;97640.81;;;10.83;66.72
6216;BME280;3141;49.234;9.326;2024-02-23T00:44:54;97645.47;;;10.87;66.45
6216;BME280;3141;49.234;9.326;2024-02-23T00:45:36;97635.97;;;10.67;66.54
6216;BME280;3141;49.234;9.326;2024-02-23T00:46:18;97642.84;;;10.87;66.42
6216;BME280;3141;49.234;9.326;2024-02-23T00:47:01;97644.25;;;10.90;66.72
6216;BME280;3141;49.234;9.326;2024-02-23T00:47:43;97651.19;;;10.84;66.39
6216;BME280;3141;49.234;9.326;2024-02-23T00:48:28;97660.91;;;10.97;66.58
6216;BME280;3141;49.234;9.326;2024-02-23T00:49:10;97660.94;;;10.90;66.51
6216;BME280;3141;49.234;9.326;2024-02-23T00:49:52;97661.97;;;10.63;66.27
6216;BME280;3141;49.234;9.326;2024-02-23T00:50:34;97671.13;;;10.67;66.47
6216;BME280;3141;49.234;9.326;2024-02-23T00:51:17;97662.00;;;10.57;66.75
6216;BME280;3141;49.234;9.326;2024-02-23T00:51:59;97663.81;;;10.49;65.94
6216;BME280;3141;49.234;9.326;2024-02-23T00:52:42;97657.50;;;10.64;65.97
6216;BME280;3141;49.234;9.326;2024-02-23T00:53:24;97657.31;;;10.65;66.45
6216;BME280;3141;49.234;9.326;2024-02-23T00:54:06;97657.31;;;10.78;65.90
6216;BME280;3141;49.234;9.326;2024-02-23T00:54:49;97651.44;;;10.70;65.23
6216;BME280;3141;49.234;9.326;2024-02-23T00:55:32;97661.78;;;10.71;65.65
6216;BME280;3141;49.234;9.326;2024-02-23T00:56:14;97660.94;;;10.84;65.03
6216;BME280;3141;49.234;9.326;2024-02-23T00:56:56;97664.19;;;10.86;65.27
6216;BME280;3141;49.234;9.326;2024-02-23T00:57:39;97665.44;;;10.64;65.80
6216;BME280;3141;49.234;9.326;2024-02-23T00:58:21;97661.78;;;10.71;65.78
6216;BME280;3141;49.234;9.326;2024-02-23T00:59:03;97657.31;;;10.39;66.03
6216;BME280;3141;49.234;9.326;2024-02-23T00:59:46;97663.00;;;10.62;65.71
6216;BME280;3141;49.234;9.326;2024-02-23T01:00:28;97666.69;;;10.61;65.60
6216;BME280;3141;49.234;9.326;2024-02-23T01:01:10;97659.56;;;10.48;65.18
6216;BME280;3141;49.234;9.326;2024-02-23T01:01:54;97656.91;;;10.55;64.69
6216;BME280;3141;49.234;9.326;2024-02-23T01:02:38;97657.31;;;10.65;64.54
6216;BME280;3141;49.234;9.326;2024-02-23T01:03:21;97662.97;;;10.75;64.66
6216;BME280;3141;49.234;9.326;2024-02-23T01:04:03;97666.22;;;10.77;64.51
6216;BME280;3141;49.234;9.326;2024-02-23T01:04:45;97660.19;;;10.57;64.64
6216;BME280;3141;49.234;9.326;2024-02-23T01:05:28;97651.66;;;10.48;64.51
6216;BME280;3141;49.234;9.326;2024-02-23T01:06:10;97659.16;;;10.65;64.04
6216;BME280;3141;49.234;9.326;2024-02-23T01:06:53;97670.91;;;10.75;64.40
6216;BME280;3141;49.234;9.326;2024-02-23T01:07:35;97650.78;;;10.81;63.60
6216;BME280;3141;49.234;9.326;2024-02-23T01:08:18;97659.53;;;10.81;63.16
6216;BME280;3141;49.234;9.326;2024-02-23T01:09:01;97661.97;;;10.63;64.03
6216;BME280;3141;49.234;9.326;2024-02-23T01:09:43;97669.50;;;10.73;63.78
6216;BME280;3141;49.234;9.326;2024-02-23T01:10:26;97673.38;;;10.64;63.92
6216;BME280;3141;49.234;9.326;2024-02-23T01:11:09;97688.63;;;10.75;63.94
6216;BME280;3141;49.234;9.326;2024-02-23T01:11:51;97679.66;;;10.76;63.60
6216;BME280;3141;49.234;9.326;2024-02-23T01:12:34;97681.69;;;10.87;64.45
6216;BME280;3141;49.234;9.326;2024-02-23T01:13:16;97689.22;;;10.77;63.67
6216;BME280;3141;49.234;9.326;2024-02-23T01:13:58;97687.78;;;10.55;63.35
6216;BME280;3141;49.234;9.326;2024-02-23T01:14:41;97693.50;;;10.58;62.97
6216;BME280;3141;49.234;9.326;2024-02-23T01:15:23;97692.69;;;10.44;63.35
6216;BME280;3141;49.234;9.326;2024-02-23T01:16:05;97694.91;;;10.41;63.63
6216;BME280;3141;49.234;9.326;2024-02-23T01:16:48;97705.69;;;10.46;63.39
6216;BME280;3141;49.234;9.326;2024-02-23T01:17:30;97714.22;;;10.35;63.22
6216;BME280;3141;49.234;9.326;2024-02-23T01:18:13;97710.13;;;10.39;63.30
6216;BME280;3141;49.234;9.326;2024-02-23T01:18:56;97698.78;;;10.58;63.73
6216;BME280;3141;49.234;9.326;2024-02-23T01:19:38;97681.50;;;10.56;63.64
6216;BME280;3141;49.234;9.326;2024-02-23T01:20:20;97695.31;;;10.51;63.44
6216;BME280;3141;49.234;9.326;2024-02-23T01:21:03;97689.41;;;10.42;63.42
6216;BME280;3141;49.234;9.326;2024-02-23T01:21:45;97697.56;;;10.41;63.27
6216;BME280;3141;49.234;9.326;2024-02-23T01:22:28;97697.34;;;10.36;64.20
6216;BME280;3141;49.234;9.326;2024-02-23T01:23:10;97693.50;;;10.45;63.70
6216;BME280;3141;49.234;9.326;2024-02-23T01:23:52;97694.28;;;10.65;63.19
6216;BME280;3141;49.234;9.326;2024-02-23T01:24:34;97691.06;;;10.57;62.84
6216;BME280;3141;49.234;9.326;2024-02-23T01:25:17;97691.88;;;10.64;63.20
6216;BME280;3141;49.234;9.326;2024-02-23T01:25:59;97692.69;;;10.64;63.20
6216;BME280;3141;49.234;9.326;2024-02-23T01:26:42;97699.59;;;10.52;62.93
6216;BME280;3141;49.234;9.326;2024-02-23T01:27:24;97694.72;;;10.36;63.53
6216;BME280;3141;49.234;9.326;2024-02-23T01:28:06;97696.31;;;10.24;63.53
6216;BME280;3141;49.234;9.326;2024-02-23T01:28:49;97692.88;;;10.30;63.24
6216;BME280;3141;49.234;9.326;2024-02-23T01:29:31;97679.88;;;10.35;63.64
6216;BME280;3141;49.234;9.326;2024-02-23T01:30:15;97679.69;;;10.30;63.54
6216;BME280;3141;49.234;9.326;2024-02-23T01:30:57;97682.72;;;10.40;63.84
6216;BME280;3141;49.234;9.326;2024-02-23T01:31:39;97684.16;;;10.56;63.42
6216;BME280;3141;49.234;9.326;2024-02-23T01:32:22;97676.41;;;10.41;63.56
6216;BME280;3141;49.234;9.326;2024-02-23T01:33:04;97669.13;;;10.43;63.33
6216;BME280;3141;49.234;9.326;2024-02-23T01:33:47;97685.75;;;10.30;63.20
6216;BME280;3141;49.234;9.326;2024-02-23T01:34:29;97688.63;;;10.42;62.96
6216;BME280;3141;49.234;9.326;2024-02-23T01:35:11;97694.69;;;10.42;63.53
6216;BME280;3141;49.234;9.326;2024-02-23T01:35:54;97687.38;;;10.51;63.42
6216;BME280;3141;49.234;9.326;2024-02-23T01:36:36;97689.66;;;10.54;63.63
6216;BME280;3141;49.234;9.326;2024-02-23T01:37:19;97686.19;;;10.47;63.79
6216;BME280;3141;49.234;9.326;2024-02-23T01:38:01;97685.75;;;10.30;64.26
6216;BME280;3141;49.234;9.326;2024-02-23T01:38:43;97688.81;;;10.34;64.41
6216;BME280;3141;49.234;9.326;2024-02-23T01:39:26;97692.28;;;10.34;63.68
6216;BME280;3141;49.234;9.326;2024-02-23T01:40:09;97692.28;;;10.41;63.30
6216;BME280;3141;49.234;9.326;2024-02-23T01:40:51;97692.28;;;10.41;63.41
6216;BME280;3141;49.234;9.326;2024-02-23T01:41:33;97698.78;;;10.45;63.29
6216;BME280;3141;49.234;9.326;2024-02-23T01:42:16;97700.00;;;10.36;63.12
6216;BME280;3141;49.234;9.326;2024-02-23T01:43:05;97711.56;;;10.41;62.90
6216;BME280;3141;49.234;9.326;2024-02-23T01:43:47;97716.66;;;10.36;63.15
6216;BME280;3141;49.234;9.326;2024-02-23T01:44:31;97706.91;;;10.37;63.45
6216;BME280;3141;49.234;9.326;2024-02-23T01:45:14;97714.22;;;10.48;63.43
6216;BME280;3141;49.234;9.326;2024-02-23T01:45:56;97710.56;;;10.36;63.07
6216;BME280;3141;49.234;9.326;2024-02-23T01:46:38;97703.66;;;10.41;63.23
6216;BME280;3141;49.234;9.326;2024-02-23T01:47:21;97707.72;;;10.51;63.41
6216;BME280;3141;49.234;9.326;2024-02-23T01:48:03;97709.97;;;10.54;63.32
6216;BME280;3141;49.234;9.326;2024-02-23T01:48:46;97712.59;;;10.54;63.56
6216;BME280;3141;49.234;9.326;2024-02-23T01:49:28;97708.13;;;10.67;64.00
6216;BME280;3141;49.234;9.326;2024-02-23T01:50:15;97707.72;;;10.51;62.72
6216;BME280;3141;49.234;9.326;2024-02-23T01:50:58;97708.53;;;10.31;63.06
6216;BME280;3141;49.234;9.326;2024-02-23T01:51:40;97706.69;;;10.19;62.60
6216;BME280;3141;49.234;9.326;2024-02-23T01:52:23;97708.13;;;10.21;63.25
6216;BME280;3141;49.234;9.326;2024-02-23T01:53:05;97709.31;;;10.19;63.92
6216;BME280;3141;49.234;9.326;2024-02-23T01:53:47;97719.50;;;10.35;62.97
6216;BME280;3141;49.234;9.326;2024-02-23T01:54:30;97712.56;;;10.21;62.81
6216;BME280;3141;49.234;9.326;2024-02-23T01:55:13;97707.28;;;10.21;63.68
6216;BME280;3141;49.234;9.326;2024-02-23T01:55:57;97713.19;;;10.23;62.95
6216;BME280;3141;49.234;9.326;2024-02-23T01:56:40;97717.03;;;10.20;62.79
6216;BME280;3141;49.234;9.326;2024-02-23T01:57:23;97718.69;;;10.34;62.78
6216;BME280;3141;49.234;9.326;2024-02-23T01:58:05;97717.44;;;10.30;63.24
6216;BME280;3141;49.234;9.326;2024-02-23T01:58:48;97718.84;;;10.20;62.57
6216;BME280;3141;49.234;9.326;2024-02-23T01:59:31;97716.00;;;10.15;63.48
6216;BME280;3141;49.234;9.326;2024-02-23T02:00:18;97731.69;;;10.29;63.42
6216;BME280;3141;49.234;9.326;2024-02-23T02:01:00;97731.06;;;10.34;63.18
6216;BME280;3141;49.234;9.326;2024-02-23T02:01:43;97728.41;;;10.34;62.64
6216;BME280;3141;49.234;9.326;2024-02-23T02:02:26;97724.75;;;10.22;62.81
6216;BME280;3141;49.234;9.326;2024-02-23T02:03:09;97734.53;;;10.41;62.16
6216;BME280;3141;49.234;9.326;2024-02-23T02:03:51;97726.00;;;10.52;62.76
6216;BME280;3141;49.234;9.326;2024-02-23T02:04:34;97737.38;;;10.46;62.47
6216;BME280;3141;49.234;9.326;2024-02-23T02:05:16;97742.47;;;10.54;62.88
6216;BME280;3141;49.234;9.326;2024-02-23T02:05:58;97731.50;;;10.57;63.29
6216;BME280;3141;49.234;9.326;2024-02-23T02:06:41;97732.91;;;10.33;62.19
6216;BME280;3141;49.234;9.326;2024-02-23T02:07:23;97730.03;;;10.22;62.78
6216;BME280;3141;49.234;9.326;2024-02-23T02:08:07;97717.44;;;10.24;62.36
6216;BME280;3141;49.234;9.326;2024-02-23T02:08:50;97723.97;;;10.41;62.49
6216;BME280;3141;49.234;9.326;2024-02-23T02:09:32;97732.91;;;10.40;62.49
6216;BME280;3141;49.234;9.326;2024-02-23T02:10:15;97728.63;;;10.26;62.23
6216;BME280;3141;49.234;9.326;2024-02-23T02:10:57;97730.63;;;10.17;62.81
6216;BME280;3141;49.234;9.326;2024-02-23T02:11:46;97728.84;;;10.31;62.45
6216;BME280;3141;49.234;9.326;2024-02-23T02:12:29;97731.69;;;10.36;62.91
6216;BME280;3141;49.234;9.326;2024-02-23T02:13:11;97736.13;;;10.16;62.11
6216;BME280;3141;49.234;9.326;2024-02-23T02:13:54;97726.50;;;10.02;61.99
6216;BME280;3141;49.234;9.326;2024-02-23T02:14:36;97734.44;;;10.02;62.57
6216;BME280;3141;49.234;9.326;2024-02-23T02:15:18;97729.16;;;9.95;62.03
6216;BME280;3141;49.234;9.326;2024-02-23T02:16:02;97723.66;;;9.97;62.12
6216;BME280;3141;49.234;9.326;2024-02-23T02:16:44;97727.56;;;10.07;61.67
6216;BME280;3141;49.234;9.326;2024-02-23T02:17:29;97731.25;;;10.26;61.52
6216;BME280;3141;49.234;9.326;2024-02-23T02:18:12;97739.19;;;10.19;62.10
6216;BME280;3141;49.234;9.326;2024-02-23T02:18:54;97736.13;;;10.16;61.41
6216;BME280;3141;49.234;9.326;2024-02-23T02:19:36;97745.25;;;10.20;61.78
6216;BME280;3141;49.234;9.326;2024-02-23T02:20:23;97743.47;;;10.33;61.06
6216;BME280;3141;49.234;9.326;2024-02-23T02:21:06;97740.22;;;10.25;61.27
6216;BME280;3141;49.234;9.326;2024-02-23T02:21:48;97746.28;;;10.19;61.68
6216;BME280;3141;49.234;9.326;2024-02-23T02:22:34;97735.72;;;10.32;61.70
6216;BME280;3141;49.234;9.326;2024-02-23T02:23:16;97744.25;;;10.27;61.29
6216;BME280;3141;49.234;9.326;2024-02-23T02:23:59;97744.66;;;10.18;61.53
6216;BME280;3141;49.234;9.326;2024-02-23T02:24:41;97746.69;;;10.16;61.21
6216;BME280;3141;49.234;9.326;2024-02-23T02:25:25;97738.56;;;10.11;61.12
6216;BME280;3141;49.234;9.326;2024-02-23T02:26:08;97745.66;;;10.23;60.96
6216;BME280;3141;49.234;9.326;2024-02-23T02:26:50;97739.38;;;10.24;61.86
6216;BME280;3141;49.234;9.326;2024-02-23T02:27:33;97741.84;;;10.32;62.57
6216;BME280;3141;49.234;9.326;2024-02-23T02:28:15;97746.28;;;10.32;61.50
6216;BME280;3141;49.234;9.326;2024-02-23T02:28:57;97742.66;;;10.26;61.07
6216;BME280;3141;49.234;9.326;2024-02-23T02:29:40;97734.88;;;10.12;61.65
6216;BME280;3141;49.234;9.326;2024-02-23T02:30:22;97740.56;;;10.09;61.71
6216;BME280;3141;49.234;9.326;2024-02-23T02:31:04;97735.63;;;9.99;61.75
6216;BME280;3141;49.234;9.326;2024-02-23T02:31:47;97750.53;;;10.13;62.04
6216;BME280;3141;49.234;9.326;2024-02-23T02:32:29;97754.41;;;10.24;61.68
6216;BME280;3141;49.234;9.326;2024-02-23T02:33:11;97740.94;;;10.06;62.00
6216;BME280;3141;49.234;9.326;2024-02-23T02:33:54;97753.31;;;10.05;61.73
6216;BME280;3141;49.234;9.326;2024-02-23T02:34:36;97751.16;;;10.15;62.13
6216;BME280;3141;49.234;9.326;2024-02-23T02:35:18;97751.97;;;10.16;61.84
6216;BME280;3141;49.234;9.326;2024-02-23T02:36:01;97756.41;;;10.09;62.11
6216;BME280;3141;49.234;9.326;2024-02-23T02:36:43;97753.78;;;10.09;62.44
6216;BME280;3141;49.234;9.326;2024-02-23T02:37:26;97755.34;;;10.03;62.58
6216;BME280;3141;49.234;9.326;2024-02-23T02:38:08;97751.06;;;9.96;62.89
6216;BME280;3141;49.234;9.326;2024-02-23T02:38:50;97759.00;;;10.02;62.74
6216;BME280;3141;49.234;9.326;2024-02-23T02:39:33;97755.19;;;10.11;62.71
6216;BME280;3141;49.234;9.326;2024-02-23T02:40:16;97758.88;;;10.17;62.12
6216;BME280;3141;49.234;9.326;2024-02-23T02:40:58;97758.66;;;10.12;62.36
6216;BME280;3141;49.234;9.326;2024-02-23T02:41:42;97751.97;;;10.09;62.39
6216;BME280;3141;49.234;9.326;2024-02-23T02:42:24;97754.75;;;10.08;62.31
6216;BME280;3141;49.234;9.326;2024-02-23T02:43:07;97751.84;;;9.90;61.78
6216;BME280;3141;49.234;9.326;2024-02-23T02:43:50;97746.38;;;9.98;61.41
6216;BME280;3141;49.234;9.326;2024-02-23T02:44:32;97754.28;;;9.91;61.80
6216;BME280;3141;49.234;9.326;2024-02-23T02:45:14;97757.16;;;10.03;62.13
6216;BME280;3141;49.234;9.326;2024-02-23T02:45:57;97755.59;;;10.15;61.93
6216;BME280;3141;49.234;9.326;2024-02-23T02:46:40;97750.72;;;10.12;62.19
6216;BME280;3141;49.234;9.326;2024-02-23T02:47:22;97759.88;;;10.16;62.04
6216;BME280;3141;49.234;9.326;2024-02-23T02:48:05;97758.25;;;10.15;61.87
6216;BME280;3141;49.234;9.326;2024-02-23T02:48:47;97764.50;;;10.01;61.65
6216;BME280;3141;49.234;9.326;2024-02-23T02:49:30;97757.91;;;9.84;61.58
6216;BME280;3141;49.234;9.326;2024-02-23T02:50:12;97764.22;;;9.89;61.78
6216;BME280;3141;49.234;9.326;2024-02-23T02:50:54;97761.03;;;10.00;62.32
6216;BME280;3141;49.234;9.326;2024-02-23T02:51:37;97760.63;;;9.97;61.65
6216;BME280;3141;49.234;9.326;2024-02-23T02:52:19;97754.50;;;9.90;61.34
6216;BME280;3141;49.234;9.326;2024-02-23T02:53:05;97751.56;;;10.12;61.48
6216;BME280;3141;49.234;9.326;2024-02-23T02:53:47;97760.88;;;10.15;61.35
6216;BME280;3141;49.234;9.326;2024-02-23T02:54:29;97759.69;;;10.17;61.50
6216;BME280;3141;49.234;9.326;2024-02-23T02:55:11;97767.81;;;10.16;61.98
6216;BME280;3141;49.234;9.326;2024-02-23T02:55:54;97759.59;;;9.98;62.01
6216;BME280;3141;49.234;9.326;2024-02-23T02:56:42;97763.06;;;10.05;62.17
6216;BME280;3141;49.234;9.326;2024-02-23T02:57:24;97767.13;;;10.01;62.23
6216;BME280;3141;49.234;9.326;2024-02-23T02:58:06;97765.09;;;10.03;61.89
6216;BME280;3141;49.234;9.326;2024-02-23T02:58:49;97765.56;;;10.13;62.16
6216;BME280;3141;49.234;9.326;2024-02-23T02:59:35;97764.50;;;10.01;62.08
6216;BME280;3141;49.234;9.326;2024-02-23T03:00:18;97760.00;;;10.01;61.48
6216;BME280;3141;49.234;9.326;2024-02-23T03:01:00;97760.47;;;10.11;61.32
6216;BME280;3141;49.234;9.326;2024-02-23T03:01:42;97753.31;;;9.99;61.92
6216;BME280;3141;49.234;9.326;2024-02-23T03:02:25;97760.41;;;10.05;61.54
6216;BME280;3141;49.234;9.326;2024-02-23T03:03:07;97759.00;;;10.02;62.55
6216;BME280;3141;49.234;9.326;2024-02-23T03:03:49;97763.97;;;9.71;61.97
6216;BME280;3141;49.234;9.326;2024-02-23T03:04:32;97763.25;;;9.97;62.61
6216;BME280;3141;49.234;9.326;2024-02-23T03:05:14;97752.56;;;9.64;61.50
6216;BME280;3141;49.234;9.326;2024-02-23T03:05:57;97759.34;;;9.86;61.54
6216;BME280;3141;49.234;9.326;2024-02-23T03:06:39;97755.97;;;9.99;61.10
6216;BME280;3141;49.234;9.326;2024-02-23T03:07:21;97752.50;;;9.98;60.77
6216;BME280;3141;49.234;9.326;2024-02-23T03:08:04;97763.66;;;10.00;60.89
6216;BME280;3141;49.234;9.326;2024-02-23T03:08:46;97761.03;;;10.00;61.27
6216;BME280;3141;49.234;9.326;2024-02-23T03:09:29;97766.53;;;10.05;60.99
6216;BME280;3141;49.234;9.326;2024-02-23T03:10:11;97769.69;;;9.81;61.23
6216;BME280;3141;49.234;9.326;2024-02-23T03:10:53;97772.97;;;9.90;60.89
6216;BME280;3141;49.234;9.326;2024-02-23T03:11:36;97777.09;;;10.05;60.71
6216;BME280;3141;49.234;9.326;2024-02-23T03:12:19;97782.81;;;10.09;60.55
6216;BME280;3141;49.234;9.326;2024-02-23T03:13:01;97776.72;;;10.15;60.46
6216;BME280;3141;49.234;9.326;2024-02-23T03:13:44;97778.78;;;10.13;60.87
6216;BME280;3141;49.234;9.326;2024-02-23T03:14:26;97786.06;;;10.11;60.80
6216;BME280;3141;49.234;9.326;2024-02-23T03:15:09;97788.13;;;10.22;60.39
6216;BME280;3141;49.234;9.326;2024-02-23T03:15:52;97781.44;;;10.19;60.49
6216;BME280;3141;49.234;9.326;2024-02-23T03:16:34;97793.81;;;10.32;60.10
6216;BME280;3141;49.234;9.326;2024-02-23T03:17:18;97788.94;;;10.16;60.41
6216;BME280;3141;49.234;9.326;2024-02-23T03:18:01;97781.94;;;10.02;60.14
6216;BME280;3141;49.234;9.326;2024-02-23T03:18:44;97778.69;;;10.00;59.83
6216;BME280;3141;49.234;9.326;2024-02-23T03:19:27;97785.75;;;9.93;59.74
6216;BME280;3141;49.234;9.326;2024-02-23T03:20:11;97787.84;;;10.04;59.48
6216;BME280;3141;49.234;9.326;2024-02-23T03:20:53;97781.88;;;9.89;59.10
6216;BME280;3141;49.234;9.326;2024-02-23T03:21:35;97784.59;;;10.02;59.30
6216;BME280;3141;49.234;9.326;2024-02-23T03:22:18;97788.31;;;10.20;59.12
6216;BME280;3141;49.234;9.326;2024-02-23T03:23:00;97787.47;;;10.13;59.20
6216;BME280;3141;49.234;9.326;2024-02-23T03:23:45;97786.28;;;10.16;59.42
6216;BME280;3141;49.234;9.326;2024-02-23T03:24:28;97796.22;;;10.14;59.79
6216;BME280;3141;49.234;9.326;2024-02-23T03:25:10;97796.16;;;10.01;59.64
6216;BME280;3141;49.234;9.326;2024-02-23T03:25:52;97786.63;;;10.06;58.70
6216;BME280;3141;49.234;9.326;2024-02-23T03:26:35;97794.81;;;10.18;58.70
6216;BME280;3141;49.234;9.326;2024-02-23T03:27:17;97793.81;;;10.25;58.96
6216;BME280;3141;49.234;9.326;2024-02-23T03:27:59;97787.28;;;10.15;59.38
6216;BME280;3141;49.234;9.326;2024-02-23T03:28:57;97775.84;;;10.01;59.67
6216;BME280;3141;49.234;9.326;2024-02-23T03:29:39;97783.13;;;9.99;59.29
6216;BME280;3141;49.234;9.326;2024-02-23T03:30:21;97778.66;;;9.87;59.31
6216;BME280;3141;49.234;9.326;2024-02-23T03:31:04;97778.66;;;9.87;58.92
6216;BME280;3141;49.234;9.326;2024-02-23T03:31:46;97782.34;;;9.99;59.06
6216;BME280;3141;49.234;9.326;2024-02-23T03:32:28;97783.34;;;9.98;58.65
6216;BME280;3141;49.234;9.326;2024-02-23T03:33:10;97790.91;;;10.07;59.16
6216;BME280;3141;49.234;9.326;2024-02-23T03:33:53;97792.72;;;10.07;58.81
6216;BME280;3141;49.234;9.326;2024-02-23T03:34:35;97794.75;;;10.05;58.30
6216;BME280;3141;49.234;9.326;2024-02-23T03:35:18;97779.94;;;10.04;59.49
6216;BME280;3141;49.234;9.326;2024-02-23T03:36:01;97778.78;;;10.13;59.26
6216;BME280;3141;49.234;9.326;2024-02-23T03:36:43;97770.16;;;10.04;58.57
6216;BME280;3141;49.234;9.326;2024-02-23T03:37:25;97771.91;;;10.25;59.02
6216;BME280;3141;49.234;9.326;2024-02-23T03:38:08;97765.38;;;10.21;59.84
6216;BME280;3141;49.234;9.326;2024-02-23T03:38:53;97772.25;;;10.09;59.90
6216;BME280;3141;49.234;9.326;2024-02-23T03:39:35;97774.28;;;10.20;59.80
6216;BME280;3141;49.234;9.326;2024-02-23T03:40:19;97767.94;;;10.01;59.73
6216;BME280;3141;49.234;9.326;2024-02-23T03:41:01;97764.63;;;9.86;59.61
6216;BME280;3141;49.234;9.326;2024-02-23T03:41:43;97772.56;;;9.86;59.69
6216;BME280;3141;49.234;9.326;2024-02-23T03:42:26;97768.31;;;9.92;59.40
6216;BME280;3141;49.234;9.326;2024-02-23T03:43:09;97767.94;;;10.01;59.10
6216;BME280;3141;49.234;9.326;2024-02-23T03:43:51;97768.31;;;9.98;59.42
6216;BME280;3141;49.234;9.326;2024-02-23T03:44:34;97765.28;;;9.95;58.72
6216;BME280;3141;49.234;9.326;2024-02-23T03:45:16;97776.44;;;9.97;59.65
6216;BME280;3141;49.234;9.326;2024-02-23T03:45:58;97781.31;;;10.00;59.82
6216;BME280;3141;49.234;9.326;2024-02-23T03:46:41;97770.16;;;9.98;59.82
6216;BME280;3141;49.234;9.326;2024-02-23T03:47:23;97782.41;;;10.12;59.59
6216;BME280;3141;49.234;9.326;2024-02-23T03:48:05;97783.19;;;10.06;59.54
6216;BME280;3141;49.234;9.326;2024-02-23T03:48:48;97785.19;;;10.04;59.60
6216;BME280;3141;49.234;9.326;2024-02-23T03:49:30;97788.94;;;10.16;59.80
6216;BME280;3141;49.234;9.326;2024-02-23T03:50:13;97791.34;;;10.11;59.45
6216;BME280;3141;49.234;9.326;2024-02-23T03:50:55;97785.19;;;10.04;59.63
6216;BME280;3141;49.234;9.326;2024-02-23T03:51:37;97781.31;;;10.00;59.28
6216;BME280;3141;49.234;9.326;2024-02-23T03:52:21;97775.84;;;10.01;59.63